Time;durP1;ratioP1;P1;durP2;ratioP2;P2;SDS_P1;SDS_P2;PMS_P1;PMS_P2;Temp;Humidity;BMP_temperature;BMP_pressure;BME280_temperature;BME280_humidity;BME280_pressure;Samples;Min_cycle;Max_cycle;Signal;HPM_P1;HPM_P2
2021/03/14 00:08:49;;;;;;;7.63;1.75;;;;;;;4.09;100.00;99178.69;21050521;28;20044;-69
2021/03/14 00:18:50;;;;;;;5.45;1.52;;;;;;;3.92;100.00;99200.19;21041797;28;20459;-70
2021/03/14 00:28:51;;;;;;;5.65;1.77;;;;;;;3.77;100.00;99242.31;21045921;28;20113;-69
2021/03/14 00:38:52;;;;;;;3.72;0.65;;;;;;;3.53;100.00;99230.47;21076440;28;20419;-70
2021/03/14 00:48:53;;;;;;;2.03;0.60;;;;;;;3.43;100.00;99269.69;21082650;28;20510;-69
2021/03/14 00:58:54;;;;;;;2.42;0.45;;;;;;;3.50;100.00;99277.19;21073709;28;20079;-70
2021/03/14 01:08:55;;;;;;;1.88;0.50;;;;;;;3.45;100.00;99293.72;21081108;28;20051;-70
2021/03/14 01:18:56;;;;;;;2.63;0.60;;;;;;;3.48;100.00;99307.44;21088275;28;20048;-70
2021/03/14 01:28:57;;;;;;;2.70;0.80;;;;;;;3.42;100.00;99314.53;21101029;28;20411;-70
2021/03/14 01:38:58;;;;;;;4.13;0.88;;;;;;;3.33;100.00;99322.69;21089617;28;20051;-70
2021/03/14 01:48:59;;;;;;;3.22;0.70;;;;;;;3.18;100.00;99314.75;21069443;28;20044;-70
2021/03/14 01:59:01;;;;;;;4.57;0.98;;;;;;;2.98;100.00;99320.72;21077873;28;20044;-71
2021/03/14 02:09:02;;;;;;;5.10;1.15;;;;;;;3.02;100.00;99324.88;21065337;28;20052;-70
2021/03/14 02:19:08;;;;;;;3.15;1.02;;;;;;;2.99;100.00;99346.53;20992264;28;20049;-70
2021/03/14 02:29:15;;;;;;;5.82;1.27;;;;;;;3.09;100.00;99372.00;20991234;28;20049;-70
2021/03/14 02:39:20;;;;;;;4.38;1.85;;;;;;;3.25;100.00;99386.00;20989754;28;20045;-70
2021/03/14 02:49:22;;;;;;;3.75;1.40;;;;;;;3.28;100.00;99391.03;20989123;28;20045;-70
2021/03/14 02:59:24;;;;;;;4.50;1.30;;;;;;;3.06;100.00;99403.97;20988279;28;20049;-70
2021/03/14 03:09:26;;;;;;;4.65;1.52;;;;;;;2.85;100.00;99412.56;20969280;28;20086;-69
2021/03/14 03:19:28;;;;;;;3.78;1.85;;;;;;;2.83;100.00;99428.13;20986879;28;20052;-70
2021/03/14 03:29:29;;;;;;;3.97;1.98;;;;;;;2.87;100.00;99454.69;20968398;28;20079;-70
2021/03/14 03:39:30;;;;;;;7.75;3.72;;;;;;;3.06;100.00;99470.31;20967641;28;20037;-69
2021/03/14 03:49:33;;;;;;;7.47;3.40;;;;;;;3.21;100.00;99487.81;20968270;28;20551;-69
2021/03/14 03:59:36;;;;;;;7.85;3.55;;;;;;;3.15;100.00;99495.84;20985569;28;20484;-70
2021/03/14 04:09:39;;;;;;;6.40;3.00;;;;;;;3.22;100.00;99515.38;21026396;28;20044;-70
2021/03/14 04:19:43;;;;;;;6.15;2.72;;;;;;;3.21;100.00;99542.13;21085175;28;20048;-70
2021/03/14 04:29:45;;;;;;;7.60;2.30;;;;;;;3.28;100.00;99574.63;21085867;28;20055;-70
2021/03/14 04:39:47;;;;;;;6.40;1.75;;;;;;;3.36;100.00;99607.03;21084077;28;20084;-70
2021/03/14 04:49:48;;;;;;;5.25;1.42;;;;;;;3.40;100.00;99626.72;21083431;28;20536;-70
2021/03/14 04:59:50;;;;;;;3.45;1.20;;;;;;;3.37;100.00;99652.69;21083953;28;20183;-70
2021/03/14 05:09:51;;;;;;;4.57;1.45;;;;;;;3.17;100.00;99675.00;21068996;28;20105;-70
2021/03/14 05:19:53;;;;;;;4.30;2.58;;;;;;;3.24;100.00;99671.31;21080144;28;20101;-69
2021/03/14 05:29:54;;;;;;;5.53;1.42;;;;;;;3.28;100.00;99673.75;21079537;28;20059;-69
2021/03/14 05:39:55;;;;;;;4.07;1.27;;;;;;;3.20;100.00;99680.91;21078967;28;20040;-69
2021/03/14 05:49:56;;;;;;;6.68;1.60;;;;;;;3.18;100.00;99707.72;21059507;28;20079;-69
2021/03/14 05:59:57;;;;;;;7.70;1.60;;;;;;;3.25;100.00;99746.22;21077575;28;20086;-69
2021/03/14 06:09:59;;;;;;;4.80;1.80;;;;;;;3.29;100.00;99758.19;21009843;28;20044;-69
2021/03/14 06:20:00;;;;;;;7.20;1.90;;;;;;;3.34;100.00;99778.72;20991904;28;20045;-69
2021/03/14 06:30:15;;;;;;;5.43;1.63;;;;;;;3.22;100.00;99798.06;20989298;28;20501;-69
2021/03/14 06:40:18;;;;;;;7.25;2.53;;;;;;;3.29;100.00;99799.56;20990844;28;20062;-69
2021/03/14 06:50:28;;;;;;;12.30;3.03;;;;;;;3.44;100.00;99814.56;20989959;28;20040;-69
2021/03/14 07:00:37;;;;;;;10.43;3.10;;;;;;;3.42;100.00;99836.19;20989490;28;20087;-70
2021/03/14 07:10:42;;;;;;;8.90;2.90;;;;;;;3.79;100.00;99851.28;21006895;28;20098;-70
2021/03/14 07:20:43;;;;;;;8.75;2.28;;;;;;;3.87;98.38;99864.78;21036547;28;20112;-69
2021/03/14 07:31:00;;;;;;;8.25;2.97;;;;;;;3.95;98.89;99880.06;21068337;28;20050;-70
2021/03/14 07:41:01;;;;;;;12.15;3.00;;;;;;;4.15;96.90;99906.94;21038537;28;20044;-69
2021/03/14 07:51:02;;;;;;;8.20;2.85;;;;;;;4.39;95.47;99925.91;21038408;28;20048;-69
2021/03/14 08:01:39;;;;;;;13.27;3.85;;;;;;;4.59;95.64;99943.31;21043236;28;20067;-69
2021/03/14 08:11:40;;;;;;;13.40;5.53;;;;;;;4.39;97.17;99957.00;21049385;28;20052;-69
2021/03/14 08:21:42;;;;;;;7.53;2.55;;;;;;;4.54;94.86;99968.56;21057871;28;20082;-69
2021/03/14 08:31:53;;;;;;;12.30;2.85;;;;;;;4.37;95.18;99973.53;21062308;28;20044;-68
2021/03/14 08:42:01;;;;;;;7.93;2.50;;;;;;;4.32;93.80;99985.78;21064352;28;20051;-69
2021/03/14 08:52:03;;;;;;;8.45;3.10;;;;;;;4.49;96.82;99998.97;21056497;28;20040;-69
2021/03/14 09:02:08;;;;;;;9.60;3.20;;;;;;;4.52;96.44;99991.09;21068006;28;20495;-68
2021/03/14 09:12:15;;;;;;;11.88;3.38;;;;;;;4.72;94.61;99981.66;21068429;28;20044;-67
2021/03/14 09:22:24;;;;;;;9.15;2.58;;;;;;;4.70;94.05;99987.84;21061662;28;20048;-68
2021/03/14 09:32:41;;;;;;;12.82;3.08;;;;;;;4.85;92.04;99992.44;21060462;28;20588;-68
2021/03/14 09:42:46;;;;;;;9.27;2.47;;;;;;;5.18;89.00;99989.47;21077624;28;20050;-68
2021/03/14 09:52:47;;;;;;;11.18;2.72;;;;;;;5.83;90.48;99995.47;21080029;28;20044;-68
2021/03/14 10:02:52;;;;;;;11.73;3.40;;;;;;;6.26;85.84;99996.28;21055713;28;20131;-68
2021/03/14 10:12:54;;;;;;;11.65;2.13;;;;;;;6.25;83.07;99994.59;21059712;28;20055;-68
2021/03/14 10:23:07;;;;;;;11.68;1.90;;;;;;;5.91;81.76;99987.38;21027147;28;20048;-68
2021/03/14 10:33:15;;;;;;;5.10;1.75;;;;;;;5.81;82.41;100002.47;21043706;28;20487;-68
2021/03/14 10:43:25;;;;;;;7.82;2.05;;;;;;;5.46;86.11;100013.44;21041196;28;20059;-68
2021/03/14 10:53:26;;;;;;;7.72;1.98;;;;;;;5.15;89.66;100022.41;21059123;28;20391;-68
2021/03/14 11:03:43;;;;;;;8.90;2.00;;;;;;;5.16;96.27;100029.28;21051016;28;20124;-68
2021/03/14 11:13:44;;;;;;;9.20;1.85;;;;;;;4.56;93.08;100024.63;21032929;28;20450;-68
2021/03/14 11:23:46;;;;;;;8.05;2.47;;;;;;;4.87;97.01;100026.94;21072265;28;20070;-69
2021/03/14 11:34:01;;;;;;;10.98;2.00;;;;;;;4.65;97.89;100026.03;21068816;28;20114;-68
2021/03/14 11:44:03;;;;;;;7.18;2.08;;;;;;;4.88;99.03;100017.41;21050675;28;20079;-69
2021/03/14 11:54:04;;;;;;;7.03;2.20;;;;;;;5.11;99.04;100002.69;21047591;28;20514;-69
2021/03/14 12:04:22;;;;;;;6.72;2.10;;;;;;;5.27;99.96;99997.75;21049076;28;20683;-69
2021/03/14 12:14:23;;;;;;;6.43;2.40;;;;;;;5.23;100.00;99992.75;21050657;28;20047;-69
2021/03/14 12:24:24;;;;;;;7.32;2.03;;;;;;;5.20;99.82;99985.91;21049795;28;20052;-68
2021/03/14 12:34:43;;;;;;;8.50;2.20;;;;;;;5.27;100.00;99986.53;21070560;28;20040;-69
2021/03/14 12:44:44;;;;;;;6.70;1.75;;;;;;;5.34;100.00;99981.03;21060739;28;20052;-69
2021/03/14 12:54:45;;;;;;;5.85;1.95;;;;;;;5.24;100.00;99984.03;21049477;28;20047;-69
2021/03/14 13:05:02;;;;;;;2.70;1.00;;;;;;;4.80;100.00;99980.56;21069498;28;20075;-69
2021/03/14 13:15:06;;;;;;;4.28;1.55;;;;;;;4.95;100.00;99974.78;21065276;28;20110;-70
2021/03/14 13:25:07;;;;;;;5.25;1.50;;;;;;;5.23;100.00;99982.38;21042147;28;20071;-68
2021/03/14 13:35:12;;;;;;;4.07;1.52;;;;;;;5.46;100.00;99980.53;21049265;28;20070;-68
2021/03/14 13:45:21;;;;;;;2.28;1.02;;;;;;;5.68;97.98;99997.84;21046289;28;20054;-67
2021/03/14 13:55:22;;;;;;;2.78;1.10;;;;;;;5.18;100.00;100008.50;21063974;28;20477;-68
2021/03/14 14:05:23;;;;;;;4.90;1.50;;;;;;;5.14;100.00;100007.75;21113172;22;20044;-68
2021/03/14 14:15:24;;;;;;;5.05;2.33;;;;;;;5.18;100.00;100032.66;21011807;28;20118;-68
2021/03/14 14:25:32;;;;;;;4.20;1.95;;;;;;;5.27;100.00;100041.00;21018063;28;20045;-68
2021/03/14 14:35:38;;;;;;;5.35;2.30;;;;;;;5.28;100.00;100051.34;21024198;28;20037;-68
2021/03/14 14:45:39;;;;;;;5.68;2.25;;;;;;;6.01;96.88;100046.69;20999775;28;20101;-68
2021/03/14 14:55:40;;;;;;;4.40;2.03;;;;;;;6.55;94.31;100042.69;21035661;28;20048;-68
2021/03/14 15:05:41;;;;;;;5.28;2.72;;;;;;;6.29;93.26;100045.53;20990803;28;20123;-68
2021/03/14 15:15:41;;;;;;;4.32;2.05;;;;;;;6.01;91.36;100045.84;21000708;28;20401;-68
2021/03/14 15:25:42;;;;;;;5.55;2.70;;;;;;;6.11;90.57;100061.88;21025614;28;20048;-68
2021/03/14 15:35:43;;;;;;;6.10;2.88;;;;;;;6.70;89.75;100055.00;20987878;28;20037;-68
2021/03/14 15:45:45;;;;;;;5.60;2.28;;;;;;;6.93;88.01;100059.19;20999039;28;20489;-70
2021/03/14 15:55:46;;;;;;;3.95;2.50;;;;;;;6.55;93.01;100066.06;20999155;28;20044;-68
2021/03/14 16:05:49;;;;;;;4.55;2.42;;;;;;;6.47;93.74;100068.16;20986048;28;20047;-69
2021/03/14 16:15:51;;;;;;;8.25;4.07;;;;;;;6.57;91.31;100066.84;21003920;28;20057;-68
2021/03/14 16:25:52;;;;;;;5.13;2.80;;;;;;;6.38;93.55;100064.19;21018933;28;20056;-68
2021/03/14 16:35:53;;;;;;;6.22;3.17;;;;;;;6.06;96.81;100075.06;20995766;28;20055;-68
2021/03/14 16:45:55;;;;;;;34.97;16.35;;;;;;;5.79;99.20;100073.56;21019766;28;20048;-68
2021/03/14 16:55:56;;;;;;;14.55;8.43;;;;;;;5.62;99.81;100073.38;21029560;28;20044;-69
2021/03/14 17:05:58;;;;;;;14.05;9.27;;;;;;;5.69;98.36;100088.66;20984213;28;20129;-69
2021/03/14 17:15:59;;;;;;;9.20;5.38;;;;;;;5.69;96.25;100091.25;21009493;28;20102;-69
2021/03/14 17:26:01;;;;;;;6.10;2.80;;;;;;;5.66;92.26;100106.94;21031486;28;20532;-69
2021/03/14 17:36:02;;;;;;;6.15;2.83;;;;;;;5.51;91.27;100117.94;20971079;28;20090;-68
2021/03/14 17:46:04;;;;;;;5.80;2.70;;;;;;;5.43;89.55;100132.97;21004989;28;20048;-69
2021/03/14 17:56:06;;;;;;;6.22;2.83;;;;;;;5.20;90.98;100157.13;21016741;28;20539;-69
2021/03/14 18:06:07;;;;;;;5.50;3.10;;;;;;;5.10;91.78;100177.38;20986087;28;20044;-69
2021/03/14 18:16:08;;;;;;;7.07;2.13;;;;;;;5.20;90.36;100180.50;21044795;28;20051;-69
2021/03/14 18:26:10;;;;;;;4.28;2.15;;;;;;;5.21;90.51;100176.16;21010767;28;20066;-69
2021/03/14 18:36:14;;;;;;;8.32;3.28;;;;;;;5.18;91.80;100202.22;21041664;28;20122;-70
2021/03/14 18:46:16;;;;;;;6.35;3.25;;;;;;;5.10;92.42;100203.31;21023737;28;20052;-70
2021/03/14 18:56:18;;;;;;;5.32;2.78;;;;;;;4.77;95.21;100221.78;21008013;28;20041;-69
2021/03/14 19:06:19;;;;;;;5.65;2.95;;;;;;;4.45;97.49;100235.78;21075583;28;20043;-69
2021/03/14 19:16:20;;;;;;;7.20;2.83;;;;;;;4.28;97.83;100241.50;21014354;28;20079;-69
2021/03/14 19:26:21;;;;;;;6.97;3.35;;;;;;;4.07;98.62;100242.13;20975480;28;20048;-69
2021/03/14 19:36:23;;;;;;;6.32;3.40;;;;;;;4.11;99.10;100256.72;21006475;28;20051;-69
2021/03/14 19:46:24;;;;;;;5.93;2.58;;;;;;;4.08;99.12;100265.41;20989200;28;20542;-69
2021/03/14 19:56:25;;;;;;;7.60;3.35;;;;;;;4.08;100.00;100262.81;20990773;28;20140;-69
2021/03/14 20:06:26;;;;;;;7.53;4.00;;;;;;;4.10;100.00;100265.38;20979890;28;20068;-69
2021/03/14 20:16:28;;;;;;;8.43;4.22;;;;;;;4.12;100.00;100248.88;20985279;28;20045;-69
2021/03/14 20:26:30;;;;;;;8.05;4.63;;;;;;;4.01;100.00;100258.75;20978567;28;20055;-69
2021/03/14 20:36:31;;;;;;;11.32;4.53;;;;;;;3.88;99.62;100260.81;20984484;28;20041;-70
2021/03/14 20:46:33;;;;;;;6.72;3.72;;;;;;;3.83;100.00;100261.84;20991027;28;20052;-69
2021/03/14 20:56:35;;;;;;;7.50;3.20;;;;;;;3.79;100.00;100268.88;21000512;28;20045;-69
2021/03/14 21:06:36;;;;;;;7.60;3.42;;;;;;;3.69;100.00;100258.81;20996486;28;20499;-70
2021/03/14 21:16:39;;;;;;;8.18;3.53;;;;;;;3.58;100.00;100261.72;20976414;28;20049;-69
2021/03/14 21:26:40;;;;;;;8.90;3.35;;;;;;;3.56;100.00;100258.31;20980193;28;20500;-69
2021/03/14 21:36:41;;;;;;;8.68;4.13;;;;;;;3.70;100.00;100256.19;20977318;28;20063;-70
2021/03/14 21:46:42;;;;;;;13.82;6.00;;;;;;;3.78;100.00;100253.38;20993022;28;20044;-69
2021/03/14 21:56:43;;;;;;;13.25;6.03;;;;;;;3.81;100.00;100253.28;20997608;28;20045;-69
2021/03/14 22:06:45;;;;;;;10.27;5.20;;;;;;;3.80;100.00;100256.78;20974117;28;677194;-69
2021/03/14 22:16:46;;;;;;;10.48;5.05;;;;;;;3.77;100.00;100252.53;20997749;28;20075;-69
2021/03/14 22:26:47;;;;;;;11.05;5.05;;;;;;;3.68;100.00;100257.13;20971729;28;20055;-70
2021/03/14 22:36:48;;;;;;;11.27;5.30;;;;;;;3.64;100.00;100246.00;20992438;28;20045;-70
2021/03/14 22:46:49;;;;;;;11.15;4.78;;;;;;;3.41;100.00;100228.53;20992751;28;20048;-70
2021/03/14 22:56:51;;;;;;;7.28;3.88;;;;;;;3.43;100.00;100238.84;20991236;28;20412;-70
2021/03/14 23:06:52;;;;;;;12.38;3.80;;;;;;;3.42;100.00;100235.41;20948960;28;20044;-71
2021/03/14 23:16:59;;;;;;;10.23;3.65;;;;;;;3.40;100.00;100228.59;21006486;28;20050;-70
2021/03/14 23:27:01;;;;;;;7.90;2.85;;;;;;;3.40;100.00;100220.84;20959902;23;20041;-71
2021/03/14 23:37:02;;;;;;;10.68;5.05;;;;;;;3.32;100.00;100208.09;20757091;28;20052;-71
2021/03/14 23:47:03;;;;;;;9.23;4.00;;;;;;;3.30;100.00;100194.34;20808450;28;20050;-71
2021/03/14 23:57:04;;;;;;;10.05;4.07;;;;;;;3.30;100.00;100199.53;20818738;28;20056;-71
